»·PEaware :: N35CF KNZY-KLAX

N35CF :: KNZY-KLAX

FLIGHT INFORMATION

Flight Status: Arrived
Operator: Privately registered:
United States
More flights under this callsign
Pilot: Anonymous 18613 (18613)
Aircraft: BEECH AIRCRAFT A90-E90 KING AIR
(BE9L)
More flights by this aircraft type
Origin: KNZY North Island NAS
United States
Destination: KLAX Los Angeles Intl
United States
More flights between these airports :: More routes between these airports
Route: +NASNI8 MZB MZB293 SLI148 SLI
File this flight plan on PilotEdge
Remarks:
Altitude:
(Current/Filed)
6,000ft
Speed:
(Current/Filed)
220kts
Departed: 29-Nov-18 05:15 PM
Arrived: 29-Nov-18 05:51 PM
Distance/Time
Traveled:
95nm/0:35
Distance/Time
To Go:
Arrived

Flight Plot

Page will automatically refresh every two minutes.

Flight plan parsing failed; only flown route is shown


Map Options




Map Legend


Flown Route
Filed Route
Departure Airport
Arrival Airport
Navaid (VOR, NDB)
Fix

Horizontal Profiles

Position Reports

Time Latitude Longitude Heading Altitude Ground
Speed
29-Nov-18 17:07 32.694282 -117.202777 359 25ft 0kts
29-Nov-18 17:08 32.694282 -117.202777 359 25ft 0kts
29-Nov-18 17:09 32.694282 -117.202777 359 25ft 0kts
29-Nov-18 17:10 32.694288 -117.202777 0 25ft 0kts
29-Nov-18 17:11 32.694288 -117.202777 0 25ft 0kts
29-Nov-18 17:12 32.694288 -117.202777 0 25ft 0kts
29-Nov-18 17:13 32.694288 -117.202777 0 25ft 0kts
29-Nov-18 17:14 32.694288 -117.202777 0 25ft 0kts
29-Nov-18 17:15 32.694288 -117.202777 0 25ft 0kts
29-Nov-18 17:16 32.694321 -117.202875 221 25ft 4kts
29-Nov-18 17:17 32.691704 -117.201435 300 22ft 0kts
29-Nov-18 17:18 32.700420 -117.216516 304 520ft 136kts
29-Nov-18 17:19 32.682991 -117.235893 147 2674ft 154kts
29-Nov-18 17:20 32.684225 -117.188568 74 4985ft 147kts
29-Nov-18 17:21 32.718010 -117.178178 320 6888ft 142kts
29-Nov-18 17:22 32.753551 -117.204549 321 7918ft 186kts
29-Nov-18 17:23 32.802471 -117.238440 326 7909ft 216kts
29-Nov-18 17:24 32.856021 -117.272451 326 7903ft 221kts
29-Nov-18 17:25 32.906719 -117.311643 316 7897ft 218kts
29-Nov-18 17:26 32.955982 -117.352950 319 7890ft 216kts
29-Nov-18 17:27 33.004461 -117.393494 318 7887ft 214kts
29-Nov-18 17:28 33.052815 -117.434058 318 7885ft 213kts
29-Nov-18 17:29 33.100663 -117.474283 318 7884ft 211kts
29-Nov-18 17:30 33.147945 -117.513728 318 7880ft 209kts
29-Nov-18 17:31 33.194844 -117.553179 318 7879ft 207kts
29-Nov-18 17:32 33.241130 -117.592297 318 7877ft 205kts
29-Nov-18 17:33 33.287100 -117.631140 318 7962ft 201kts
29-Nov-18 17:34 33.331775 -117.669515 317 7992ft 204kts
29-Nov-18 17:35 33.377952 -117.708842 318 7990ft 207kts
29-Nov-18 17:36 33.424763 -117.748567 318 7987ft 210kts
29-Nov-18 17:37 33.472100 -117.788854 318 7984ft 212kts
29-Nov-18 17:38 33.519790 -117.829456 318 7983ft 214kts
29-Nov-18 17:39 33.567955 -117.870505 318 7981ft 215kts
29-Nov-18 17:40 33.616139 -117.911656 318 7977ft 215kts
29-Nov-18 17:41 33.664163 -117.952705 318 7974ft 216kts
29-Nov-18 17:42 33.713025 -117.994530 318 7378ft 227kts
29-Nov-18 17:43 33.762476 -118.036465 318 6965ft 208kts
29-Nov-18 17:44 33.817070 -118.057828 342 6591ft 217kts
29-Nov-18 17:45 33.875560 -118.072621 341 5811ft 216kts
29-Nov-18 17:46 33.932390 -118.087945 340 4679ft 197kts
29-Nov-18 17:47 33.958473 -118.135814 290 3556ft 155kts
29-Nov-18 17:48 33.957867 -118.181346 261 3357ft 135kts
29-Nov-18 17:49 33.953361 -118.225381 261 2663ft 134kts
29-Nov-18 17:50 33.948757 -118.271279 261 1927ft 143kts
29-Nov-18 17:51 33.943956 -118.318476 262 1161ft 141kts
29-Nov-18 17:52 33.939703 -118.359800 262 503ft 115kts
29-Nov-18 17:53 33.936432 -118.391921 264 101ft 47kts
29-Nov-18 17:54 33.934090 -118.393865 181 102ft 18kts
29-Nov-18 17:55 33.933735 -118.394291 270 103ft 0kts
29-Nov-18 17:56 33.933735 -118.394291 270 103ft 0kts
29-Nov-18 17:57 33.933735 -118.394291 270 103ft 0kts

Navigation Log

Ident Type
Flight plan parsing failed, navigation log unavailable